Artondale, Washington
Current Conditions -  °F | °C
As of 12:37 AM on Sunday 23 Nov 2014 (Local Time) from KTIW Reporting Station
Overcast Overcast  
Wind Chill: 41°   Ceiling: 3000
Heat Index: 47°   Visibility: 10mi
Dew Point: 43°   Wind: 15mph
Humidity: 86%   Direction: 200°SSW
Pressure: 30.16"   Gusts: 21mph
Location:  47.2986°N, 122.616°W
Report Text: KTIW 230837Z AUTO 20013G18KT 10SM SCT013 BKN030 OVC043 08/06 A3016 RMK AO2 RAE30 P0010 T00830061
Loading
Personal Weather Stations






























Interactive Weather Map New forecast layout! Learn more

10-Day Weather Forecast

Advertisements
Track Severe Weather on mobile